< < Back
Terminal Aerodrome Forecast


Current Version              Previous Versions:   1  2  3  4  5  6  7  8  9  

Terminal Aerodrome Forecast

154
FTUS42 KGSP 220900 AAA
TAFCLT
TAF AMD
KCLT 220903Z 2209/2306 00000KT P6SM SCT250
     FM221300 29003KT P6SM SCT120 BKN250
     FM221700 33006KT P6SM SCT060
     FM230100 30003KT P6SM BKN060=

Latest METAR

417
SAUS70 KWBC 221700 RRE
MTRCLT
METAR KCLT 221652Z 36007KT 320V030 10SM BKN250 33/19 A3006 RMK AO2
SLP168 T03280194


USA.gov is the U.S. government's official web portal to all federal, state and local government web resources and services.